Time;durP1;ratioP1;P1;durP2;ratioP2;P2;SDS_P1;SDS_P2;PMS_P1;PMS_P2;Temp;Humidity;BMP_temperature;BMP_pressure;BME280_temperature;BME280_humidity;BME280_pressure;Samples;Min_cycle;Max_cycle;Signal;HPM_P1;HPM_P2
2021/10/04 00:02:06;;;;;;;8.73;5.80;;;;;;;12.91;49.28;95906.09;5009439;28;20448;-64
2021/10/04 00:04:34;;;;;;;10.77;6.13;;;;;;;12.48;50.66;95908.69;5001490;28;20483;-64
2021/10/04 00:07:01;;;;;;;11.30;6.47;;;;;;;12.56;50.45;95910.09;4996831;28;20472;-63
2021/10/04 00:09:28;;;;;;;8.60;6.17;;;;;;;12.63;50.18;95901.00;5015839;28;20849;-62
2021/10/04 00:11:55;;;;;;;10.73;6.50;;;;;;;12.55;50.81;95904.06;5009291;28;20451;-63
2021/10/04 00:14:22;;;;;;;8.43;6.47;;;;;;;12.68;50.19;95908.19;5011945;28;20437;-63
2021/10/04 00:16:51;;;;;;;11.47;6.40;;;;;;;12.70;50.45;95914.75;5010538;28;20451;-63
2021/10/04 00:19:19;;;;;;;11.20;6.67;;;;;;;12.77;50.36;95906.72;5013482;28;20512;-60
2021/10/04 00:21:47;;;;;;;9.33;6.50;;;;;;;12.82;50.36;95904.94;5006519;28;20445;-61
2021/10/04 00:24:14;;;;;;;9.67;6.47;;;;;;;12.77;50.55;95894.34;5006550;28;20445;-62
2021/10/04 00:26:41;;;;;;;9.30;6.43;;;;;;;12.74;50.67;95892.22;5026126;28;20969;-63
2021/10/04 00:29:09;;;;;;;10.03;6.20;;;;;;;12.73;50.60;95901.16;5009826;28;20444;-61
2021/10/04 00:31:37;;;;;;;8.43;5.93;;;;;;;12.67;51.20;95899.47;5018018;28;20455;-63
2021/10/04 00:34:04;;;;;;;8.53;6.53;;;;;;;12.45;50.78;95867.13;5014204;28;20450;-64
2021/10/04 00:36:32;;;;;;;11.83;7.00;;;;;;;12.65;50.77;95904.19;4999594;28;20456;-65
2021/10/04 00:38:58;;;;;;;8.70;6.43;;;;;;;12.44;51.70;95902.34;5003329;28;20484;-64
2021/10/04 00:41:25;;;;;;;9.10;7.10;;;;;;;12.47;51.47;95901.84;5022289;28;20452;-64
2021/10/04 00:43:52;;;;;;;9.00;6.53;;;;;;;12.52;51.42;95907.16;5018558;28;21000;-62
2021/10/04 00:46:19;;;;;;;9.27;7.07;;;;;;;12.32;52.09;95899.00;5010910;28;20456;-63
2021/10/04 00:48:47;;;;;;;11.17;8.20;;;;;;;12.21;52.17;95899.88;5025560;28;20451;-61
2021/10/04 00:51:15;;;;;;;12.93;7.17;;;;;;;12.27;52.11;95906.81;5023679;28;20597;-63
2021/10/04 00:53:43;;;;;;;9.30;7.43;;;;;;;12.12;52.43;95889.00;4997228;28;20440;-62
2021/10/04 00:56:11;;;;;;;11.63;6.63;;;;;;;12.12;52.60;95899.50;5010219;28;20535;-63
2021/10/04 00:58:38;;;;;;;12.17;7.63;;;;;;;12.21;52.50;95902.50;5010447;28;21036;-63
2021/10/04 01:01:05;;;;;;;10.47;7.43;;;;;;;12.19;52.19;95904.59;5010289;28;20456;-62
2021/10/04 01:03:32;;;;;;;9.93;7.87;;;;;;;12.18;52.45;95898.56;4996781;28;20477;-64
2021/10/04 01:05:59;;;;;;;11.80;7.90;;;;;;;12.14;52.23;95907.13;5010151;28;21321;-61
2021/10/04 01:08:26;;;;;;;12.40;7.77;;;;;;;12.15;52.43;95909.53;5010787;28;20511;-62
2021/10/04 01:10:53;;;;;;;10.50;8.03;;;;;;;12.04;52.57;95896.50;5009573;28;20455;-64
2021/10/04 01:13:20;;;;;;;15.17;9.57;;;;;;;12.03;52.51;95894.88;5010886;28;20449;-63
2021/10/04 01:15:47;;;;;;;17.83;10.27;;;;;;;12.01;52.19;95902.22;5008165;28;20452;-63
2021/10/04 01:18:15;;;;;;;15.93;9.60;;;;;;;11.88;52.56;95892.00;5010200;28;20602;-65
2021/10/04 01:20:42;;;;;;;16.40;10.03;;;;;;;11.88;52.69;95892.00;5019162;28;20459;-64
2021/10/04 01:23:09;;;;;;;18.40;10.80;;;;;;;11.85;53.28;95895.13;5011618;28;20943;-63
2021/10/04 01:25:36;;;;;;;17.33;10.43;;;;;;;11.83;53.02;95905.88;5021768;28;20452;-65
2021/10/04 01:28:04;;;;;;;20.27;10.70;;;;;;;11.72;53.46;95903.31;5010696;28;20444;-63
2021/10/04 01:30:33;;;;;;;19.67;11.60;;;;;;;11.64;53.61;95906.31;5009852;28;20460;-63
2021/10/04 01:33:01;;;;;;;16.50;10.73;;;;;;;11.62;53.28;95908.38;5009743;28;20844;-64
2021/10/04 01:35:28;;;;;;;18.67;10.83;;;;;;;11.64;53.06;95901.06;5010112;28;20447;-62
2021/10/04 01:37:56;;;;;;;15.87;10.40;;;;;;;11.63;53.48;95899.44;5009109;28;20480;-62
2021/10/04 01:40:23;;;;;;;17.20;9.80;;;;;;;11.70;52.99;95897.50;5009729;28;20842;-63
2021/10/04 01:42:51;;;;;;;13.80;9.53;;;;;;;11.65;53.31;95894.78;5009729;28;20874;-63
2021/10/04 01:45:23;;;;;;;14.40;9.90;;;;;;;11.63;53.09;95891.56;5009778;28;20451;-64
2021/10/04 01:47:51;;;;;;;17.83;9.53;;;;;;;11.60;53.56;95895.50;5022997;28;20849;-64
2021/10/04 01:50:18;;;;;;;15.43;10.50;;;;;;;11.55;53.10;95879.63;5009603;28;20511;-64
2021/10/04 01:52:45;;;;;;;16.10;9.80;;;;;;;11.43;53.64;95880.72;5014306;28;20471;-62
2021/10/04 01:55:13;;;;;;;19.00;9.50;;;;;;;11.33;53.33;95862.22;5006523;28;20954;-64
2021/10/04 01:57:41;;;;;;;14.33;9.03;;;;;;;11.60;53.46;95889.44;5004188;28;20530;-63
2021/10/04 02:00:12;;;;;;;16.30;9.60;;;;;;;11.44;53.96;95896.25;5000727;28;20437;-62
2021/10/04 02:02:41;;;;;;;14.73;9.10;;;;;;;11.44;53.72;95895.47;5005588;28;20447;-63
2021/10/04 02:05:09;;;;;;;12.43;9.43;;;;;;;11.35;54.18;95896.88;5009588;28;20445;-64
2021/10/04 02:07:37;;;;;;;14.00;9.07;;;;;;;11.30;54.10;95896.75;5010773;28;20532;-66
2021/10/04 02:10:10;;;;;;;15.33;10.53;;;;;;;11.27;54.28;95894.63;5010955;28;20455;-64
2021/10/04 02:12:39;;;;;;;16.33;10.57;;;;;;;11.10;54.72;95905.88;5011168;28;21328;-64
2021/10/04 02:15:08;;;;;;;20.40;11.33;;;;;;;11.18;54.02;95902.09;5012247;28;20449;-63
2021/10/04 02:17:35;;;;;;;15.10;10.07;;;;;;;11.14;54.59;95901.75;5002944;28;20441;-65
2021/10/04 02:20:05;;;;;;;16.23;11.13;;;;;;;11.17;54.17;95909.16;5005572;28;20492;-65
2021/10/04 02:22:32;;;;;;;16.57;10.63;;;;;;;11.09;55.45;95906.88;4996698;28;20484;-65
2021/10/04 02:24:59;;;;;;;16.17;11.00;;;;;;;11.07;55.03;95911.59;5011389;28;20446;-63
2021/10/04 02:27:26;;;;;;;16.90;11.70;;;;;;;11.07;54.54;95908.97;5012501;28;20505;-65
2021/10/04 02:29:53;;;;;;;19.00;10.03;;;;;;;10.95;55.36;95913.44;4995393;28;20488;-63
2021/10/04 02:32:20;;;;;;;14.67;9.50;;;;;;;11.09;54.68;95916.59;5008766;28;20785;-62
2021/10/04 02:34:47;;;;;;;20.43;9.33;;;;;;;10.97;54.79;95911.38;5008779;28;20456;-63
2021/10/04 02:37:14;;;;;;;11.80;7.90;;;;;;;10.83;55.12;95907.44;4998275;28;20955;-63
2021/10/04 02:39:41;;;;;;;10.60;7.47;;;;;;;10.58;55.83;95912.16;5005319;28;20563;-63
2021/10/04 02:42:08;;;;;;;9.30;7.17;;;;;;;10.30;55.85;95914.69;4999916;28;20449;-63
2021/10/04 02:44:35;;;;;;;11.07;7.17;;;;;;;10.11;56.54;95921.84;5001192;28;20451;-64
2021/10/04 02:47:02;;;;;;;11.87;7.13;;;;;;;10.04;57.38;95921.13;5007130;28;20577;-62
2021/10/04 02:49:29;;;;;;;11.10;7.10;;;;;;;9.96;57.34;95894.50;5015561;28;20539;-62
2021/10/04 02:51:56;;;;;;;8.83;6.73;;;;;;;9.97;57.06;95914.41;5012122;28;20449;-63
2021/10/04 02:54:23;;;;;;;8.77;6.33;;;;;;;10.11;56.82;95931.53;5013365;28;20448;-65
2021/10/04 02:56:50;;;;;;;12.10;6.90;;;;;;;10.02;57.05;95917.94;5008074;28;20551;-65
2021/10/04 02:59:17;;;;;;;10.73;6.60;;;;;;;10.07;56.90;95920.69;4998811;28;20497;-63
2021/10/04 03:01:44;;;;;;;10.23;6.60;;;;;;;10.20;57.46;95917.06;5002042;28;20467;-63
2021/10/04 03:04:11;;;;;;;9.03;6.27;;;;;;;10.33;56.13;95924.69;5000868;28;20981;-66
2021/10/04 03:06:37;;;;;;;8.83;6.70;;;;;;;10.16;57.44;95926.44;5000761;28;20447;-65
2021/10/04 03:09:05;;;;;;;11.43;9.23;;;;;;;9.95;57.30;95925.13;5010908;28;20455;-64
2021/10/04 03:11:31;;;;;;;9.17;7.27;;;;;;;10.09;57.57;95920.50;5006308;28;20456;-64
2021/10/04 03:13:58;;;;;;;10.20;7.00;;;;;;;10.17;56.96;95920.16;5004263;28;20832;-63
2021/10/04 03:16:26;;;;;;;9.80;6.33;;;;;;;10.40;56.42;95929.84;5007552;28;20541;-63
2021/10/04 03:18:53;;;;;;;8.87;6.43;;;;;;;10.55;55.88;95923.09;5008532;28;20472;-63
2021/10/04 03:21:21;;;;;;;9.50;6.77;;;;;;;10.70;56.03;95927.84;5001436;28;20449;-64
2021/10/04 03:23:48;;;;;;;9.67;6.33;;;;;;;10.80;56.00;95921.00;5001808;28;20445;-64
2021/10/04 03:26:15;;;;;;;8.80;6.20;;;;;;;10.76;55.97;95909.41;5018651;28;20502;-64
2021/10/04 03:28:42;;;;;;;10.57;7.30;;;;;;;10.87;55.86;95915.63;5012025;28;20535;-62
2021/10/04 03:31:11;;;;;;;12.97;7.00;;;;;;;10.86;55.28;95920.06;5007534;28;20444;-63
2021/10/04 03:33:38;;;;;;;11.53;6.73;;;;;;;10.88;55.63;95923.25;5018502;28;20463;-65
2021/10/04 03:36:07;;;;;;;11.00;7.27;;;;;;;10.83;55.38;95920.53;5013826;28;20452;-63
2021/10/04 03:38:34;;;;;;;9.10;6.53;;;;;;;10.79;55.11;95919.41;5006561;28;20488;-62
2021/10/04 03:41:01;;;;;;;9.83;6.50;;;;;;;10.81;54.92;95917.34;5001358;28;20456;-63
2021/10/04 03:43:28;;;;;;;9.50;6.57;;;;;;;10.82;55.32;95918.16;5005238;28;20451;-63
2021/10/04 03:45:55;;;;;;;11.50;6.93;;;;;;;10.88;54.96;95919.84;5010119;28;20485;-64
2021/10/04 03:48:22;;;;;;;8.27;6.30;;;;;;;10.74;55.42;95916.69;5012902;28;21454;-64
2021/10/04 03:50:49;;;;;;;13.83;7.83;;;;;;;10.49;55.51;95910.91;5010380;28;20444;-63
2021/10/04 03:53:16;;;;;;;14.23;7.17;;;;;;;10.03;57.02;95931.84;5008823;28;20435;-64
2021/10/04 03:55:43;;;;;;;14.10;7.60;;;;;;;9.23;59.31;95921.97;5003494;28;20445;-62
2021/10/04 03:58:09;;;;;;;13.80;7.13;;;;;;;9.19;59.74;95927.66;5004181;28;20471;-65
2021/10/04 04:00:36;;;;;;;13.00;8.83;;;;;;;9.07;59.97;95941.66;5005331;28;20450;-64
2021/10/04 04:03:04;;;;;;;16.87;8.60;;;;;;;9.13;60.75;95931.16;5009588;28;20503;-63
2021/10/04 04:05:32;;;;;;;15.60;7.97;;;;;;;8.80;61.11;95938.59;5015156;28;20433;-63
2021/10/04 04:07:59;;;;;;;14.37;8.00;;;;;;;8.94;60.73;95924.34;5023689;28;20551;-63
2021/10/04 04:10:26;;;;;;;13.33;7.90;;;;;;;9.32;59.37;95925.88;5011491;28;20448;-62
2021/10/04 04:12:53;;;;;;;18.20;8.40;;;;;;;9.45;58.94;95934.31;4997577;28;20444;-63
2021/10/04 04:15:20;;;;;;;10.20;7.03;;;;;;;9.56;58.94;95923.09;5011118;28;20460;-63
2021/10/04 04:17:47;;;;;;;17.43;8.57;;;;;;;9.28;59.27;95929.94;5010782;28;21012;-62
2021/10/04 04:20:15;;;;;;;12.03;7.97;;;;;;;9.25;59.79;95940.84;5002552;28;20991;-66
2021/10/04 04:22:42;;;;;;;16.33;9.10;;;;;;;9.30;58.88;95941.78;5010823;28;20463;-62
2021/10/04 04:25:10;;;;;;;15.47;8.30;;;;;;;9.41;58.52;95940.22;5000413;28;20508;-64
2021/10/04 04:27:37;;;;;;;17.23;8.20;;;;;;;9.55;58.78;95941.63;5004951;28;20837;-64
2021/10/04 04:30:07;;;;;;;17.70;7.53;;;;;;;9.57;58.27;95944.81;5010799;28;20448;-63
2021/10/04 04:32:34;;;;;;;15.50;7.90;;;;;;;9.71;57.65;95941.78;5002325;28;20815;-64
2021/10/04 04:35:05;;;;;;;15.53;7.87;;;;;;;9.79;57.33;95935.44;5010765;28;20437;-63
2021/10/04 04:37:34;;;;;;;12.97;7.60;;;;;;;9.87;57.21;95935.13;5003853;28;20448;-63
2021/10/04 04:40:04;;;;;;;15.57;8.27;;;;;;;9.92;57.17;95945.72;5008045;28;20605;-63
2021/10/04 04:42:31;;;;;;;20.47;8.40;;;;;;;9.92;57.51;95948.34;5003920;28;20811;-61
2021/10/04 04:44:58;;;;;;;17.87;8.90;;;;;;;9.97;56.97;95948.44;5009603;28;20798;-61
2021/10/04 04:47:25;;;;;;;104.70;68.40;;;;;;;10.02;57.19;95952.00;5008769;28;20823;-63
2021/10/04 04:49:52;;;;;;;111.50;87.00;;;;;;;10.10;57.35;95950.91;5010734;28;20507;-64
2021/10/04 04:52:19;;;;;;;91.13;68.47;;;;;;;10.25;56.49;95953.88;5008543;28;20443;-67
2021/10/04 04:54:46;;;;;;;28.40;11.73;;;;;;;10.32;56.60;95954.56;5010593;28;20441;-62
2021/10/04 04:57:14;;;;;;;22.13;10.13;;;;;;;10.23;56.47;95939.41;5008856;28;20444;-65
2021/10/04 04:59:42;;;;;;;22.07;9.90;;;;;;;10.33;56.82;95958.75;5004491;28;20496;-64
2021/10/04 05:02:09;;;;;;;22.93;9.20;;;;;;;10.11;57.74;95923.66;4998651;28;20444;-63
2021/10/04 05:04:36;;;;;;;24.03;10.90;;;;;;;10.47;57.04;95962.75;5011930;28;20541;-63
2021/10/04 05:07:04;;;;;;;27.23;11.70;;;;;;;10.47;56.55;95944.41;5007645;28;20449;-64
2021/10/04 05:09:30;;;;;;;108.87;77.17;;;;;;;10.41;57.89;95963.66;5010539;28;20441;-67
2021/10/04 05:11:57;;;;;;;70.10;46.07;;;;;;;10.38;57.66;95964.13;5022553;28;20436;-62
2021/10/04 05:14:24;;;;;;;51.37;38.10;;;;;;;10.47;57.31;95959.34;5011743;28;20453;-67
2021/10/04 05:16:51;;;;;;;22.63;11.70;;;;;;;10.40;57.26;95956.03;5010217;28;20812;-64
2021/10/04 05:19:18;;;;;;;25.97;14.30;;;;;;;10.34;56.71;95957.75;5010752;28;20478;-64
2021/10/04 05:21:45;;;;;;;23.93;12.13;;;;;;;10.41;56.97;95958.44;5010084;28;20504;-64
2021/10/04 05:24:12;;;;;;;24.77;12.73;;;;;;;10.35;57.39;95974.25;5010101;28;20651;-64
2021/10/04 05:26:40;;;;;;;28.23;13.60;;;;;;;10.45;56.91;95969.25;5009796;28;20460;-64
2021/10/04 05:29:07;;;;;;;25.20;14.90;;;;;;;10.36;57.08;95976.66;5010300;28;20958;-64
2021/10/04 05:31:34;;;;;;;28.40;14.60;;;;;;;10.33;57.11;95982.34;5009136;28;20495;-63
2021/10/04 05:34:02;;;;;;;33.80;15.83;;;;;;;10.20;56.96;95946.69;5009788;28;20456;-65
2021/10/04 05:36:31;;;;;;;27.93;14.50;;;;;;;10.49;57.32;95980.88;5013801;28;20539;-65
2021/10/04 05:39:00;;;;;;;31.23;15.57;;;;;;;10.62;57.03;95980.66;5016506;28;20469;-65
2021/10/04 05:41:27;;;;;;;33.10;17.43;;;;;;;10.53;57.32;95966.28;5021209;28;20531;-63
2021/10/04 05:43:53;;;;;;;32.13;16.37;;;;;;;10.71;57.01;95969.56;5024257;28;20466;-62
2021/10/04 05:46:20;;;;;;;30.67;17.83;;;;;;;10.80;56.23;95965.56;5007066;28;20445;-64
2021/10/04 05:48:47;;;;;;;28.47;16.50;;;;;;;10.86;55.49;95966.47;5008819;28;20518;-63
2021/10/04 05:51:15;;;;;;;27.73;16.50;;;;;;;10.96;55.68;95967.50;5009056;28;20643;-65
2021/10/04 05:53:42;;;;;;;26.13;16.00;;;;;;;10.87;58.82;95958.41;4996166;28;20503;-61
2021/10/04 05:56:09;;;;;;;30.63;15.07;;;;;;;10.87;57.80;95968.88;5008875;28;20831;-63
2021/10/04 05:58:37;;;;;;;29.87;14.30;;;;;;;10.96;55.92;95967.50;5009108;28;20983;-64
2021/10/04 06:01:03;;;;;;;25.40;14.20;;;;;;;10.97;57.00;95979.56;5008846;28;20829;-62
2021/10/04 06:03:30;;;;;;;27.60;13.90;;;;;;;10.97;57.06;95969.06;5009947;28;20501;-61
2021/10/04 06:05:58;;;;;;;23.47;13.60;;;;;;;11.01;57.22;95970.22;5013731;28;20960;-65
2021/10/04 06:08:24;;;;;;;25.27;14.43;;;;;;;11.16;56.61;95983.66;5018937;28;20555;-63
2021/10/04 06:10:52;;;;;;;30.90;13.67;;;;;;;11.21;56.63;95972.44;5009256;28;20448;-63
2021/10/04 06:13:19;;;;;;;22.17;14.00;;;;;;;11.38;56.02;95969.88;5010020;28;20453;-64
2021/10/04 06:15:46;;;;;;;20.10;12.30;;;;;;;11.25;54.99;95965.69;5022789;28;20490;-63
2021/10/04 06:18:13;;;;;;;24.03;12.57;;;;;;;11.16;56.17;95967.91;5009764;28;21008;-64
2021/10/04 06:20:41;;;;;;;20.80;13.03;;;;;;;11.22;56.34;95974.06;5008996;28;20472;-65
2021/10/04 06:23:09;;;;;;;20.23;12.47;;;;;;;11.13;56.24;95984.09;5009362;28;20449;-64
2021/10/04 06:25:35;;;;;;;17.50;11.60;;;;;;;11.36;54.54;95978.00;5009756;28;20743;-62
2021/10/04 06:28:03;;;;;;;18.70;10.50;;;;;;;11.57;54.67;95973.94;5009242;28;20445;-62
2021/10/04 06:30:30;;;;;;;17.33;10.13;;;;;;;11.62;53.25;95981.88;5020356;28;20809;-64
2021/10/04 06:32:57;;;;;;;17.17;10.53;;;;;;;11.53;55.08;95978.81;5011796;28;20447;-66
2021/10/04 06:35:24;;;;;;;20.47;11.17;;;;;;;11.57;55.52;95979.19;5018674;28;20467;-62
2021/10/04 06:37:51;;;;;;;19.97;10.97;;;;;;;11.72;55.73;95993.38;5026831;28;20958;-64
2021/10/04 06:40:18;;;;;;;14.83;9.40;;;;;;;11.83;55.50;95994.38;5009148;28;20490;-65
2021/10/04 06:42:46;;;;;;;13.03;7.43;;;;;;;12.03;54.11;95984.19;5009226;28;20451;-63
2021/10/04 06:45:13;;;;;;;10.43;6.63;;;;;;;12.13;52.62;95990.41;5009189;28;20966;-63
2021/10/04 06:47:40;;;;;;;12.37;7.37;;;;;;;12.22;51.78;95988.22;5009081;28;20532;-61
2021/10/04 06:50:09;;;;;;;9.03;7.40;;;;;;;12.20;51.80;95990.28;5008890;28;20433;-62
2021/10/04 06:52:40;;;;;;;12.63;7.27;;;;;;;12.23;51.81;96001.09;5008923;28;20467;-63
2021/10/04 06:55:09;;;;;;;11.97;7.57;;;;;;;12.39;52.76;95993.47;5009648;28;20523;-62
2021/10/04 06:57:37;;;;;;;10.87;7.07;;;;;;;12.67;51.67;95986.25;5012555;28;20515;-64
2021/10/04 07:00:09;;;;;;;11.70;7.10;;;;;;;12.60;51.87;95990.91;5011481;28;20499;-62
2021/10/04 07:02:36;;;;;;;14.43;7.53;;;;;;;12.69;52.40;95986.81;5001003;28;20502;-62
2021/10/04 07:05:05;;;;;;;15.90;7.90;;;;;;;12.92;51.95;95983.97;5012793;28;20539;-64
2021/10/04 07:07:32;;;;;;;10.00;7.73;;;;;;;12.87;51.76;95989.19;5026562;28;20441;-64
2021/10/04 07:09:59;;;;;;;12.33;7.77;;;;;;;12.98;51.34;95996.16;5022747;28;20805;-63
2021/10/04 07:12:25;;;;;;;11.70;7.27;;;;;;;13.07;51.53;95997.38;5015481;28;20456;-63
2021/10/04 07:14:52;;;;;;;16.43;7.93;;;;;;;13.14;50.62;95987.47;5020966;28;20526;-62
2021/10/04 07:17:19;;;;;;;16.40;7.70;;;;;;;13.17;51.18;95981.69;5031220;28;20443;-63
2021/10/04 07:19:47;;;;;;;9.50;7.50;;;;;;;13.36;50.36;95978.78;5013056;28;20846;-63
2021/10/04 07:22:14;;;;;;;13.43;8.10;;;;;;;13.44;50.33;95987.03;5012049;28;20437;-63
2021/10/04 07:24:41;;;;;;;19.23;8.50;;;;;;;13.36;51.31;95990.06;5017200;28;20480;-61
2021/10/04 07:27:11;;;;;;;14.30;8.30;;;;;;;13.38;50.79;95987.19;5020549;28;20480;-65
2021/10/04 07:29:38;;;;;;;11.67;8.30;;;;;;;13.69;49.17;95975.94;5013037;28;20432;-64
2021/10/04 07:32:06;;;;;;;16.23;9.97;;;;;;;13.54;50.51;95981.09;5013956;28;20448;-63
2021/10/04 07:34:33;;;;;;;19.33;8.70;;;;;;;13.77;49.16;95980.78;5014499;28;20456;-61
2021/10/04 07:37:01;;;;;;;17.00;8.27;;;;;;;14.02;48.31;95975.75;5013896;28;20437;-63
2021/10/04 07:39:29;;;;;;;15.93;8.57;;;;;;;14.18;47.70;95970.38;5012333;28;21105;-64
2021/10/04 07:41:57;;;;;;;12.93;8.30;;;;;;;14.19;48.54;95971.97;5018547;28;20432;-64
2021/10/04 07:44:25;;;;;;;15.07;9.20;;;;;;;14.21;46.42;95976.97;5018651;28;20923;-65
2021/10/04 07:46:53;;;;;;;14.13;8.20;;;;;;;14.16;46.59;95963.75;5011677;28;20955;-63
2021/10/04 07:49:20;;;;;;;14.27;8.10;;;;;;;14.35;46.74;95962.34;5012016;28;20452;-62
2021/10/04 07:51:56;;;;;;;14.00;7.73;;;;;;;14.52;46.75;95963.00;5011249;28;20450;-63
2021/10/04 07:54:23;;;;;;;17.53;8.10;;;;;;;14.63;44.99;95961.22;5012014;28;20859;-63
2021/10/04 07:56:50;;;;;;;14.20;7.77;;;;;;;14.54;48.24;95953.00;5011120;28;20826;-64
2021/10/04 07:59:17;;;;;;;13.00;7.40;;;;;;;14.72;47.61;95957.88;5012235;28;20477;-63
2021/10/04 08:01:45;;;;;;;21.07;14.17;;;;;;;15.02;46.60;95965.94;4996456;28;20529;-63
2021/10/04 08:04:12;;;;;;;24.93;17.90;;;;;;;15.44;45.92;95962.47;4992955;28;20496;-64
2021/10/04 08:06:39;;;;;;;20.10;10.67;;;;;;;15.35;45.85;95956.03;5015260;28;20571;-63
2021/10/04 08:09:06;;;;;;;11.97;8.37;;;;;;;15.23;46.14;95954.44;5014779;28;20453;-64
2021/10/04 08:11:33;;;;;;;19.57;8.40;;;;;;;15.23;47.01;95961.53;5010985;28;20454;-62
2021/10/04 08:14:00;;;;;;;12.07;8.27;;;;;;;15.31;46.54;95954.97;5011617;28;20460;-62
2021/10/04 08:16:27;;;;;;;11.47;7.57;;;;;;;15.68;45.24;95950.34;5011255;28;20487;-64
2021/10/04 08:18:54;;;;;;;16.53;7.93;;;;;;;15.70;44.73;95953.53;5011937;28;20445;-64
2021/10/04 08:21:22;;;;;;;14.13;7.47;;;;;;;16.19;43.18;95947.50;5010834;28;20491;-63
2021/10/04 08:23:50;;;;;;;12.07;7.80;;;;;;;16.04;42.31;95949.34;5011503;28;20526;-62
2021/10/04 08:26:17;;;;;;;12.03;7.83;;;;;;;16.31;41.51;95943.81;5011001;28;20440;-62
2021/10/04 08:28:44;;;;;;;22.97;7.87;;;;;;;16.17;42.85;95927.66;5011883;28;20954;-62
2021/10/04 08:31:12;;;;;;;9.83;6.87;;;;;;;16.30;42.22;95943.00;5024678;28;20460;-63
2021/10/04 08:33:39;;;;;;;13.10;7.20;;;;;;;16.16;43.43;95942.75;5011544;28;20437;-62
2021/10/04 08:36:06;;;;;;;15.47;8.30;;;;;;;16.55;41.00;95940.34;5010336;28;20464;-61
2021/10/04 08:38:33;;;;;;;11.50;6.83;;;;;;;16.34;40.07;95937.97;5011490;28;20864;-62
2021/10/04 08:41:00;;;;;;;11.03;7.63;;;;;;;15.97;40.50;95923.16;5010217;28;20484;-63
2021/10/04 08:43:27;;;;;;;20.40;7.07;;;;;;;16.23;41.47;95934.53;5016658;28;20432;-63
2021/10/04 08:45:57;;;;;;;9.37;6.53;;;;;;;16.61;40.98;95923.41;5018306;28;20445;-62
2021/10/04 08:48:26;;;;;;;13.00;7.03;;;;;;;16.70;39.76;95916.53;5011307;28;20437;-64
2021/10/04 08:50:55;;;;;;;18.03;9.93;;;;;;;16.68;42.70;95916.00;5010540;28;20472;-60
2021/10/04 08:53:23;;;;;;;22.70;9.97;;;;;;;16.78;42.55;95913.34;5010847;28;20445;-61
2021/10/04 08:55:51;;;;;;;18.30;9.20;;;;;;;16.69;43.00;95912.28;5010171;28;20503;-61
2021/10/04 08:58:18;;;;;;;12.83;7.70;;;;;;;17.04;41.91;95906.88;5010868;28;20503;-61
2021/10/04 09:00:45;;;;;;;12.10;7.80;;;;;;;17.44;40.81;95905.13;5003415;28;20488;-62
2021/10/04 09:03:15;;;;;;;13.07;7.87;;;;;;;17.47;40.97;95896.59;4991366;28;21031;-65
2021/10/04 09:05:44;;;;;;;16.03;8.47;;;;;;;17.97;41.01;95896.31;5012188;28;20956;-62
2021/10/04 09:08:14;;;;;;;22.50;9.50;;;;;;;17.90;40.81;95895.84;5021270;28;20564;-61
2021/10/04 09:10:44;;;;;;;15.97;8.53;;;;;;;17.69;41.20;95891.72;5009892;28;20563;-62
2021/10/04 09:13:15;;;;;;;11.67;7.37;;;;;;;18.05;41.30;95891.19;5010963;28;20664;-61
2021/10/04 09:15:47;;;;;;;15.13;8.60;;;;;;;17.95;40.54;95879.88;5011196;28;20629;-62
2021/10/04 09:18:27;;;;;;;14.60;7.77;;;;;;;18.33;38.87;95888.84;5019339;28;20263;-64
2021/10/04 09:21:05;;;;;;;15.43;7.43;;;;;;;18.84;38.99;95880.13;5013581;28;20243;-61
2021/10/04 09:23:56;;;;;;;15.67;7.40;;;;;;;19.06;38.46;95875.06;5010683;28;20204;-62
2021/10/04 09:26:26;;;;;;;16.43;7.40;;;;;;;18.61;40.04;95875.56;4995610;28;20224;-62
2021/10/04 09:29:11;;;;;;;15.40;8.00;;;;;;;18.90;38.51;95870.22;5010256;28;20198;-63
2021/10/04 09:31:44;;;;;;;13.03;6.57;;;;;;;18.95;37.70;95868.31;5010017;28;20555;-63
2021/10/04 09:34:12;;;;;;;15.97;8.67;;;;;;;19.16;37.71;95877.59;5010567;28;20225;-63
2021/10/04 09:36:41;;;;;;;15.30;6.67;;;;;;;19.23;37.08;95863.19;5009593;28;20543;-62
2021/10/04 09:39:22;;;;;;;14.27;6.40;;;;;;;19.44;36.49;95864.50;5010261;28;20202;-63
2021/10/04 09:41:55;;;;;;;15.43;11.07;;;;;;;19.96;36.01;95856.28;5009328;28;20224;-62
2021/10/04 09:44:24;;;;;;;52.33;41.97;;;;;;;19.91;34.97;95848.38;4996872;28;20673;-62
2021/10/04 09:46:51;;;;;;;9.63;5.80;;;;;;;19.86;34.93;95848.44;5009519;28;20326;-62
2021/10/04 09:49:18;;;;;;;10.87;5.37;;;;;;;19.77;34.44;95848.34;4998648;28;20202;-62
2021/10/04 09:51:52;;;;;;;10.10;5.43;;;;;;;19.69;34.81;95848.22;5002781;28;20902;-63
2021/10/04 09:54:20;;;;;;;10.67;5.00;;;;;;;19.82;34.93;95839.47;4990607;28;20301;-63
2021/10/04 09:56:47;;;;;;;10.57;5.53;;;;;;;19.91;32.83;95837.72;5003450;28;20209;-64
2021/10/04 09:59:14;;;;;;;10.40;4.90;;;;;;;20.05;32.29;95844.66;4999637;28;20233;-61
2021/10/04 10:01:42;;;;;;;8.53;4.23;;;;;;;20.26;31.90;95834.50;5007043;28;20263;-63
2021/10/04 10:04:09;;;;;;;10.33;4.80;;;;;;;20.28;31.24;95821.69;5010376;28;20267;-64
2021/10/04 10:06:36;;;;;;;8.93;4.77;;;;;;;20.56;32.58;95823.31;5019247;28;20228;-61
2021/10/04 10:09:03;;;;;;;9.57;4.97;;;;;;;20.48;32.64;95810.69;5013000;28;20961;-62
2021/10/04 10:11:32;;;;;;;13.50;5.27;;;;;;;20.78;32.20;95820.72;5017215;28;20196;-64
2021/10/04 10:14:00;;;;;;;14.23;7.73;;;;;;;20.79;33.24;95817.00;5015369;28;20208;-62
2021/10/04 10:16:36;;;;;;;14.13;6.30;;;;;;;21.00;33.56;95812.09;5021796;28;20583;-63
2021/10/04 10:19:14;;;;;;;10.57;5.53;;;;;;;21.12;31.70;95810.47;5023445;28;20204;-61
2021/10/04 10:21:41;;;;;;;29.63;8.03;;;;;;;21.06;32.06;95806.34;5008412;28;20261;-63
2021/10/04 10:24:11;;;;;;;11.47;5.03;;;;;;;20.91;31.33;95809.28;5009429;28;20728;-61
2021/10/04 10:26:49;;;;;;;7.03;4.50;;;;;;;21.35;32.26;95802.53;5008744;28;20285;-62
2021/10/04 10:29:16;;;;;;;13.00;5.40;;;;;;;21.40;31.37;95800.53;5009728;28;20206;-62
2021/10/04 10:31:53;;;;;;;13.57;5.60;;;;;;;21.62;31.98;95802.44;5020017;28;20224;-62
2021/10/04 10:34:32;;;;;;;10.70;4.90;;;;;;;21.70;31.31;95791.03;5032734;28;20197;-62
2021/10/04 10:37:08;;;;;;;10.37;4.20;;;;;;;21.76;30.59;95792.50;5013273;28;20193;-62
2021/10/04 10:39:38;;;;;;;6.40;3.70;;;;;;;21.55;31.54;95783.41;5011763;28;20556;-63
2021/10/04 10:42:18;;;;;;;7.47;4.00;;;;;;;21.62;31.01;95786.44;5012502;28;20321;-62
2021/10/04 10:44:56;;;;;;;9.13;4.90;;;;;;;21.73;31.00;95777.09;5013590;28;20209;-62
2021/10/04 10:47:36;;;;;;;6.23;4.50;;;;;;;21.41;30.78;95777.31;5022950;28;20276;-63
2021/10/04 10:50:13;;;;;;;6.23;4.90;;;;;;;21.44;31.92;95784.72;5015086;28;20186;-64
2021/10/04 10:52:41;;;;;;;6.20;4.20;;;;;;;21.28;31.28;95775.47;5024531;28;20212;-63
2021/10/04 10:55:20;;;;;;;29.30;11.63;;;;;;;20.95;32.43;95780.16;5028982;28;20190;-63
2021/10/04 10:57:47;;;;;;;6.20;3.90;;;;;;;20.72;30.64;95766.00;5012964;28;20241;-63
2021/10/04 11:00:18;;;;;;;7.47;3.67;;;;;;;21.13;29.82;95761.41;5009881;28;20205;-61
2021/10/04 11:02:48;;;;;;;6.90;3.20;;;;;;;21.17;29.81;95759.72;5002283;28;20193;-63
2021/10/04 11:05:40;;;;;;;7.70;3.70;;;;;;;21.56;30.92;95755.63;5013152;28;20211;-62
2021/10/04 11:08:18;;;;;;;6.47;4.30;;;;;;;21.48;32.19;95748.34;5011989;28;20200;-62
2021/10/04 11:10:47;;;;;;;21.20;4.90;;;;;;;21.62;30.86;95749.09;5015990;28;20506;-61
2021/10/04 11:13:27;;;;;;;9.93;4.60;;;;;;;21.93;31.85;95739.28;5013297;28;20267;-62
2021/10/04 11:15:58;;;;;;;4.90;3.80;;;;;;;22.19;29.86;95731.38;5011949;28;20205;-63
2021/10/04 11:18:37;;;;;;;6.00;4.00;;;;;;;22.46;29.61;95728.50;5022548;28;20278;-62
2021/10/04 11:21:06;;;;;;;8.57;4.00;;;;;;;22.24;30.67;95724.03;5014668;28;20225;-63
2021/10/04 11:23:33;;;;;;;6.40;3.57;;;;;;;22.46;28.19;95721.28;5012746;28;20216;-63
2021/10/04 11:26:00;;;;;;;7.87;4.13;;;;;;;22.47;29.74;95733.53;5012038;28;20215;-63
2021/10/04 11:28:30;;;;;;;7.07;4.33;;;;;;;22.59;29.68;95717.72;5012419;28;20755;-61
2021/10/04 11:30:58;;;;;;;8.07;3.90;;;;;;;22.69;28.02;95714.75;5011818;28;20202;-63
2021/10/04 11:33:28;;;;;;;7.00;3.83;;;;;;;22.76;27.94;95719.63;5012275;28;20734;-63